sensor_id;sensor_type;location;lat;lon;timestamp;temperature;humidity
44037;DHT22;62488;-37.670;-63.532;2023-01-28T00:00:51;26.20;45.60
44037;DHT22;62488;-37.670;-63.532;2023-01-28T00:03:18;26.20;45.50
44037;DHT22;62488;-37.670;-63.532;2023-01-28T00:05:45;26.20;45.20
44037;DHT22;62488;-37.670;-63.532;2023-01-28T00:08:12;26.20;45.10
44037;DHT22;62488;-37.670;-63.532;2023-01-28T00:10:40;26.30;44.80
44037;DHT22;62488;-37.670;-63.532;2023-01-28T00:13:10;26.10;45.40
44037;DHT22;62488;-37.670;-63.532;2023-01-28T00:15:39;25.90;45.40
44037;DHT22;62488;-37.670;-63.532;2023-01-28T00:18:07;25.80;45.90
44037;DHT22;62488;-37.670;-63.532;2023-01-28T00:20:33;25.60;46.10
44037;DHT22;62488;-37.670;-63.532;2023-01-28T00:23:00;25.50;45.80
44037;DHT22;62488;-37.670;-63.532;2023-01-28T00:25:28;25.60;46.20
44037;DHT22;62488;-37.670;-63.532;2023-01-28T00:27:54;25.50;47.50
44037;DHT22;62488;-37.670;-63.532;2023-01-28T00:30:21;25.50;45.80
44037;DHT22;62488;-37.670;-63.532;2023-01-28T00:32:48;25.50;45.50
44037;DHT22;62488;-37.670;-63.532;2023-01-28T00:35:15;25.50;46.40
44037;DHT22;62488;-37.670;-63.532;2023-01-28T00:37:45;25.40;45.50
44037;DHT22;62488;-37.670;-63.532;2023-01-28T00:40:12;25.40;45.60
44037;DHT22;62488;-37.670;-63.532;2023-01-28T00:42:39;25.40;45.70
44037;DHT22;62488;-37.670;-63.532;2023-01-28T00:45:07;25.40;45.70
44037;DHT22;62488;-37.670;-63.532;2023-01-28T00:47:34;25.30;45.70
44037;DHT22;62488;-37.670;-63.532;2023-01-28T00:50:01;25.20;46.20
44037;DHT22;62488;-37.670;-63.532;2023-01-28T00:52:28;25.10;46.20
44037;DHT22;62488;-37.670;-63.532;2023-01-28T00:54:55;25.10;45.50
44037;DHT22;62488;-37.670;-63.532;2023-01-28T00:57:22;25.00;46.10
44037;DHT22;62488;-37.670;-63.532;2023-01-28T00:59:49;24.90;46.50
44037;DHT22;62488;-37.670;-63.532;2023-01-28T01:02:16;24.90;45.80
44037;DHT22;62488;-37.670;-63.532;2023-01-28T01:04:43;24.90;45.80
44037;DHT22;62488;-37.670;-63.532;2023-01-28T01:07:22;24.70;45.90
44037;DHT22;62488;-37.670;-63.532;2023-01-28T01:10:01;24.70;45.00
44037;DHT22;62488;-37.670;-63.532;2023-01-28T01:12:28;24.90;44.30
44037;DHT22;62488;-37.670;-63.532;2023-01-28T01:14:56;24.90;44.60
44037;DHT22;62488;-37.670;-63.532;2023-01-28T01:17:23;24.90;44.40
44037;DHT22;62488;-37.670;-63.532;2023-01-28T01:19:50;24.80;44.60
44037;DHT22;62488;-37.670;-63.532;2023-01-28T01:22:17;24.70;45.40
44037;DHT22;62488;-37.670;-63.532;2023-01-28T01:24:46;24.60;46.00
44037;DHT22;62488;-37.670;-63.532;2023-01-28T01:27:13;24.30;46.20
44037;DHT22;62488;-37.670;-63.532;2023-01-28T01:29:40;24.20;46.60
44037;DHT22;62488;-37.670;-63.532;2023-01-28T01:32:07;24.10;46.70
44037;DHT22;62488;-37.670;-63.532;2023-01-28T01:34:35;24.10;46.60
44037;DHT22;62488;-37.670;-63.532;2023-01-28T01:37:02;24.10;46.50
44037;DHT22;62488;-37.670;-63.532;2023-01-28T01:39:31;24.10;46.40
44037;DHT22;62488;-37.670;-63.532;2023-01-28T01:41:58;24.10;46.00
44037;DHT22;62488;-37.670;-63.532;2023-01-28T01:47:15;24.20;45.00
44037;DHT22;62488;-37.670;-63.532;2023-01-28T01:49:44;24.20;45.50
44037;DHT22;62488;-37.670;-63.532;2023-01-28T01:52:21;24.30;45.50
44037;DHT22;62488;-37.670;-63.532;2023-01-28T01:54:53;24.20;45.60
44037;DHT22;62488;-37.670;-63.532;2023-01-28T01:57:27;24.10;46.20
44037;DHT22;62488;-37.670;-63.532;2023-01-28T01:59:56;23.90;46.80
44037;DHT22;62488;-37.670;-63.532;2023-01-28T02:02:45;23.70;48.00
44037;DHT22;62488;-37.670;-63.532;2023-01-28T02:05:15;23.50;49.20
44037;DHT22;62488;-37.670;-63.532;2023-01-28T02:07:44;23.30;50.20
44037;DHT22;62488;-37.670;-63.532;2023-01-28T02:10:13;23.10;51.30
44037;DHT22;62488;-37.670;-63.532;2023-01-28T02:12:43;22.90;52.10
44037;DHT22;62488;-37.670;-63.532;2023-01-28T02:15:17;22.70;53.00
44037;DHT22;62488;-37.670;-63.532;2023-01-28T02:17:46;22.60;54.40
44037;DHT22;62488;-37.670;-63.532;2023-01-28T02:20:23;22.50;55.60
44037;DHT22;62488;-37.670;-63.532;2023-01-28T02:23:12;22.30;56.80
44037;DHT22;62488;-37.670;-63.532;2023-01-28T02:26:22;22.10;57.60
44037;DHT22;62488;-37.670;-63.532;2023-01-28T02:32:09;21.90;61.40
44037;DHT22;62488;-37.670;-63.532;2023-01-28T02:37:20;21.80;64.10
44037;DHT22;62488;-37.670;-63.532;2023-01-28T02:40:32;21.80;65.60
44037;DHT22;62488;-37.670;-63.532;2023-01-28T02:42:39;21.80;66.60
44037;DHT22;62488;-37.670;-63.532;2023-01-28T02:45:32;21.70;67.80
44037;DHT22;62488;-37.670;-63.532;2023-01-28T02:48:21;21.60;68.50
44037;DHT22;62488;-37.670;-63.532;2023-01-28T02:50:57;21.50;69.60
44037;DHT22;62488;-37.670;-63.532;2023-01-28T02:53:44;21.50;70.60
44037;DHT22;62488;-37.670;-63.532;2023-01-28T03:05:58;21.20;74.80
44037;DHT22;62488;-37.670;-63.532;2023-01-28T03:08:53;21.30;75.80
44037;DHT22;62488;-37.670;-63.532;2023-01-28T03:11:42;21.20;76.80
44037;DHT22;62488;-37.670;-63.532;2023-01-28T03:14:30;21.10;77.70
44037;DHT22;62488;-37.670;-63.532;2023-01-28T03:17:45;21.00;78.40
44037;DHT22;62488;-37.670;-63.532;2023-01-28T03:20:46;20.90;79.40
44037;DHT22;62488;-37.670;-63.532;2023-01-28T03:23:41;20.80;80.70
44037;DHT22;62488;-37.670;-63.532;2023-01-28T03:26:30;20.80;81.80
44037;DHT22;62488;-37.670;-63.532;2023-01-28T03:29:18;20.80;82.90
44037;DHT22;62488;-37.670;-63.532;2023-01-28T03:32:05;20.60;84.30
44037;DHT22;62488;-37.670;-63.532;2023-01-28T03:34:50;20.50;86.00
44037;DHT22;62488;-37.670;-63.532;2023-01-28T03:37:36;20.50;87.30
44037;DHT22;62488;-37.670;-63.532;2023-01-28T03:40:05;20.50;88.90
44037;DHT22;62488;-37.670;-63.532;2023-01-28T03:42:33;20.50;89.80
44037;DHT22;62488;-37.670;-63.532;2023-01-28T03:45:00;20.50;90.30
44037;DHT22;62488;-37.670;-63.532;2023-01-28T03:47:30;20.30;90.90
44037;DHT22;62488;-37.670;-63.532;2023-01-28T03:49:58;20.20;91.60
44037;DHT22;62488;-37.670;-63.532;2023-01-28T03:52:31;20.10;92.20
44037;DHT22;62488;-37.670;-63.532;2023-01-28T03:54:58;20.10;92.60
44037;DHT22;62488;-37.670;-63.532;2023-01-28T03:57:27;20.10;93.10
44037;DHT22;62488;-37.670;-63.532;2023-01-28T03:59:56;20.00;93.60
44037;DHT22;62488;-37.670;-63.532;2023-01-28T04:02:23;19.90;94.10
44037;DHT22;62488;-37.670;-63.532;2023-01-28T04:04:52;19.80;94.70
44037;DHT22;62488;-37.670;-63.532;2023-01-28T04:07:19;19.80;94.90
44037;DHT22;62488;-37.670;-63.532;2023-01-28T04:09:46;19.80;95.30
44037;DHT22;62488;-37.670;-63.532;2023-01-28T04:12:13;19.80;95.70
44037;DHT22;62488;-37.670;-63.532;2023-01-28T04:14:40;19.70;96.10
44037;DHT22;62488;-37.670;-63.532;2023-01-28T04:17:07;19.60;96.50
44037;DHT22;62488;-37.670;-63.532;2023-01-28T04:19:36;19.60;97.10
44037;DHT22;62488;-37.670;-63.532;2023-01-28T04:22:05;19.50;97.60
44037;DHT22;62488;-37.670;-63.532;2023-01-28T04:24:32;19.50;97.90
44037;DHT22;62488;-37.670;-63.532;2023-01-28T04:26:59;19.50;98.20
44037;DHT22;62488;-37.670;-63.532;2023-01-28T04:29:26;19.40;98.60
44037;DHT22;62488;-37.670;-63.532;2023-01-28T04:31:53;19.30;99.00
44037;DHT22;62488;-37.670;-63.532;2023-01-28T04:34:21;19.30;99.30
44037;DHT22;62488;-37.670;-63.532;2023-01-28T04:36:48;19.20;99.80
44037;DHT22;62488;-37.670;-63.532;2023-01-28T04:39:15;19.20;99.90
44037;DHT22;62488;-37.670;-63.532;2023-01-28T04:41:42;19.10;99.90
44037;DHT22;62488;-37.670;-63.532;2023-01-28T04:44:09;18.90;99.90
44037;DHT22;62488;-37.670;-63.532;2023-01-28T04:46:36;18.90;99.90
44037;DHT22;62488;-37.670;-63.532;2023-01-28T04:49:03;18.80;99.90
44037;DHT22;62488;-37.670;-63.532;2023-01-28T04:51:30;18.80;99.90
44037;DHT22;62488;-37.670;-63.532;2023-01-28T04:53:57;18.90;99.90
44037;DHT22;62488;-37.670;-63.532;2023-01-28T04:56:24;18.90;99.90
44037;DHT22;62488;-37.670;-63.532;2023-01-28T04:58:51;18.80;99.90
44037;DHT22;62488;-37.670;-63.532;2023-01-28T05:01:18;18.80;99.90
44037;DHT22;62488;-37.670;-63.532;2023-01-28T05:03:44;18.80;99.90
44037;DHT22;62488;-37.670;-63.532;2023-01-28T05:06:11;18.80;99.90
44037;DHT22;62488;-37.670;-63.532;2023-01-28T05:08:38;18.70;99.90
44037;DHT22;62488;-37.670;-63.532;2023-01-28T05:11:06;18.70;99.90
44037;DHT22;62488;-37.670;-63.532;2023-01-28T05:24:08;18.60;99.90
44037;DHT22;62488;-37.670;-63.532;2023-01-28T05:26:36;18.30;99.90
44037;DHT22;62488;-37.670;-63.532;2023-01-28T05:29:03;18.30;99.90
44037;DHT22;62488;-37.670;-63.532;2023-01-28T05:31:30;18.30;99.90
44037;DHT22;62488;-37.670;-63.532;2023-01-28T05:33:57;18.20;99.90
44037;DHT22;62488;-37.670;-63.532;2023-01-28T05:36:24;18.10;99.90
44037;DHT22;62488;-37.670;-63.532;2023-01-28T05:38:51;18.00;99.90
44037;DHT22;62488;-37.670;-63.532;2023-01-28T05:41:18;18.00;99.90
44037;DHT22;62488;-37.670;-63.532;2023-01-28T05:43:45;17.90;99.90
44037;DHT22;62488;-37.670;-63.532;2023-01-28T05:46:12;17.90;99.90
44037;DHT22;62488;-37.670;-63.532;2023-01-28T05:48:39;17.90;99.90
44037;DHT22;62488;-37.670;-63.532;2023-01-28T05:51:06;17.80;99.90
44037;DHT22;62488;-37.670;-63.532;2023-01-28T05:53:32;17.80;99.90
44037;DHT22;62488;-37.670;-63.532;2023-01-28T05:55:59;17.70;99.90
44037;DHT22;62488;-37.670;-63.532;2023-01-28T05:58:26;17.70;99.90
44037;DHT22;62488;-37.670;-63.532;2023-01-28T06:00:57;17.70;99.90
44037;DHT22;62488;-37.670;-63.532;2023-01-28T06:03:24;17.90;99.90
44037;DHT22;62488;-37.670;-63.532;2023-01-28T06:05:51;17.80;99.90
44037;DHT22;62488;-37.670;-63.532;2023-01-28T06:08:18;17.80;99.90
44037;DHT22;62488;-37.670;-63.532;2023-01-28T06:10:45;17.70;99.90
44037;DHT22;62488;-37.670;-63.532;2023-01-28T06:13:12;17.70;99.90
44037;DHT22;62488;-37.670;-63.532;2023-01-28T06:15:39;17.50;99.90
44037;DHT22;62488;-37.670;-63.532;2023-01-28T06:18:06;17.60;99.90
44037;DHT22;62488;-37.670;-63.532;2023-01-28T06:20:33;17.60;99.90
44037;DHT22;62488;-37.670;-63.532;2023-01-28T06:23:01;17.70;99.90
44037;DHT22;62488;-37.670;-63.532;2023-01-28T06:25:28;17.70;99.90
44037;DHT22;62488;-37.670;-63.532;2023-01-28T06:27:55;17.70;99.90
44037;DHT22;62488;-37.670;-63.532;2023-01-28T06:30:22;17.50;99.90
44037;DHT22;62488;-37.670;-63.532;2023-01-28T06:32:56;17.30;99.90
44037;DHT22;62488;-37.670;-63.532;2023-01-28T06:35:23;17.30;99.90
44037;DHT22;62488;-37.670;-63.532;2023-01-28T06:37:51;17.40;99.90
44037;DHT22;62488;-37.670;-63.532;2023-01-28T06:40:18;17.30;99.90
44037;DHT22;62488;-37.670;-63.532;2023-01-28T06:42:45;17.30;99.90
44037;DHT22;62488;-37.670;-63.532;2023-01-28T06:45:12;17.30;99.90
44037;DHT22;62488;-37.670;-63.532;2023-01-28T06:47:39;17.30;99.90
44037;DHT22;62488;-37.670;-63.532;2023-01-28T06:50:06;17.30;99.90
44037;DHT22;62488;-37.670;-63.532;2023-01-28T06:52:33;17.40;99.90
44037;DHT22;62488;-37.670;-63.532;2023-01-28T06:55:00;17.60;99.90
44037;DHT22;62488;-37.670;-63.532;2023-01-28T06:57:27;17.60;99.90
44037;DHT22;62488;-37.670;-63.532;2023-01-28T06:59:54;17.70;99.90
44037;DHT22;62488;-37.670;-63.532;2023-01-28T07:02:21;17.60;99.90
44037;DHT22;62488;-37.670;-63.532;2023-01-28T07:04:48;17.60;99.90
44037;DHT22;62488;-37.670;-63.532;2023-01-28T07:07:15;17.60;99.90
44037;DHT22;62488;-37.670;-63.532;2023-01-28T07:09:42;17.70;99.90
44037;DHT22;62488;-37.670;-63.532;2023-01-28T07:12:09;17.70;99.90
44037;DHT22;62488;-37.670;-63.532;2023-01-28T07:14:36;17.70;99.90
44037;DHT22;62488;-37.670;-63.532;2023-01-28T07:17:03;17.70;99.90
44037;DHT22;62488;-37.670;-63.532;2023-01-28T07:19:30;17.70;99.90
44037;DHT22;62488;-37.670;-63.532;2023-01-28T07:21:56;17.70;99.90
44037;DHT22;62488;-37.670;-63.532;2023-01-28T07:24:26;17.80;99.90
44037;DHT22;62488;-37.670;-63.532;2023-01-28T07:26:53;17.90;99.90
44037;DHT22;62488;-37.670;-63.532;2023-01-28T07:29:20;17.90;99.90
44037;DHT22;62488;-37.670;-63.532;2023-01-28T07:31:47;17.80;99.90
44037;DHT22;62488;-37.670;-63.532;2023-01-28T07:34:14;17.90;99.90
44037;DHT22;62488;-37.670;-63.532;2023-01-28T07:36:41;18.00;99.90
44037;DHT22;62488;-37.670;-63.532;2023-01-28T07:39:08;18.10;99.90
44037;DHT22;62488;-37.670;-63.532;2023-01-28T07:41:35;18.10;99.90
44037;DHT22;62488;-37.670;-63.532;2023-01-28T07:44:02;18.30;99.90
44037;DHT22;62488;-37.670;-63.532;2023-01-28T07:46:29;18.30;99.90
44037;DHT22;62488;-37.670;-63.532;2023-01-28T07:48:56;18.30;99.90
44037;DHT22;62488;-37.670;-63.532;2023-01-28T07:51:23;18.30;99.90
44037;DHT22;62488;-37.670;-63.532;2023-01-28T07:53:50;18.40;99.90
44037;DHT22;62488;-37.670;-63.532;2023-01-28T07:56:17;18.40;99.90
44037;DHT22;62488;-37.670;-63.532;2023-01-28T07:58:44;18.50;99.90
44037;DHT22;62488;-37.670;-63.532;2023-01-28T08:01:11;18.50;99.90
44037;DHT22;62488;-37.670;-63.532;2023-01-28T08:03:39;18.50;99.90
44037;DHT22;62488;-37.670;-63.532;2023-01-28T08:06:06;18.50;99.90
44037;DHT22;62488;-37.670;-63.532;2023-01-28T08:08:33;18.50;99.90
44037;DHT22;62488;-37.670;-63.532;2023-01-28T08:11:07;18.50;99.90
44037;DHT22;62488;-37.670;-63.532;2023-01-28T08:13:34;18.40;99.90
44037;DHT22;62488;-37.670;-63.532;2023-01-28T08:16:01;18.30;99.90
44037;DHT22;62488;-37.670;-63.532;2023-01-28T08:18:28;18.30;99.90
44037;DHT22;62488;-37.670;-63.532;2023-01-28T08:20:58;18.30;99.90
44037;DHT22;62488;-37.670;-63.532;2023-01-28T08:23:26;18.20;99.90
44037;DHT22;62488;-37.670;-63.532;2023-01-28T08:25:56;18.30;99.90
44037;DHT22;62488;-37.670;-63.532;2023-01-28T08:28:23;18.20;99.90
44037;DHT22;62488;-37.670;-63.532;2023-01-28T08:30:50;18.20;99.90
44037;DHT22;62488;-37.670;-63.532;2023-01-28T08:33:18;18.20;99.90
44037;DHT22;62488;-37.670;-63.532;2023-01-28T08:35:45;18.10;99.90
44037;DHT22;62488;-37.670;-63.532;2023-01-28T08:38:13;18.10;99.90
44037;DHT22;62488;-37.670;-63.532;2023-01-28T08:40:43;18.10;99.90
44037;DHT22;62488;-37.670;-63.532;2023-01-28T08:43:10;18.00;99.90
44037;DHT22;62488;-37.670;-63.532;2023-01-28T08:45:39;18.00;99.90
44037;DHT22;62488;-37.670;-63.532;2023-01-28T08:48:10;17.90;99.90
44037;DHT22;62488;-37.670;-63.532;2023-01-28T08:50:39;17.90;99.90
44037;DHT22;62488;-37.670;-63.532;2023-01-28T08:53:11;17.90;99.90
44037;DHT22;62488;-37.670;-63.532;2023-01-28T08:55:38;17.90;99.90
44037;DHT22;62488;-37.670;-63.532;2023-01-28T08:58:07;17.90;99.90
44037;DHT22;62488;-37.670;-63.532;2023-01-28T09:00:36;17.90;99.90
44037;DHT22;62488;-37.670;-63.532;2023-01-28T09:03:03;17.90;99.90
44037;DHT22;62488;-37.670;-63.532;2023-01-28T09:05:31;17.80;99.90
44037;DHT22;62488;-37.670;-63.532;2023-01-28T09:08:09;17.80;99.90
44037;DHT22;62488;-37.670;-63.532;2023-01-28T09:10:37;17.70;99.90
44037;DHT22;62488;-37.670;-63.532;2023-01-28T09:13:05;17.70;99.90
44037;DHT22;62488;-37.670;-63.532;2023-01-28T09:15:33;17.70;99.90
44037;DHT22;62488;-37.670;-63.532;2023-01-28T09:18:00;17.70;99.90
44037;DHT22;62488;-37.670;-63.532;2023-01-28T09:20:28;17.80;99.90
44037;DHT22;62488;-37.670;-63.532;2023-01-28T09:22:54;17.80;99.90
44037;DHT22;62488;-37.670;-63.532;2023-01-28T09:25:21;17.80;99.90
44037;DHT22;62488;-37.670;-63.532;2023-01-28T09:27:48;17.80;99.90
44037;DHT22;62488;-37.670;-63.532;2023-01-28T09:30:15;17.80;99.90
44037;DHT22;62488;-37.670;-63.532;2023-01-28T09:32:43;17.80;99.90
44037;DHT22;62488;-37.670;-63.532;2023-01-28T09:35:10;17.80;99.90
44037;DHT22;62488;-37.670;-63.532;2023-01-28T09:37:37;17.80;99.90
44037;DHT22;62488;-37.670;-63.532;2023-01-28T09:40:04;17.80;99.90
44037;DHT22;62488;-37.670;-63.532;2023-01-28T09:45:27;17.90;99.90
44037;DHT22;62488;-37.670;-63.532;2023-01-28T09:48:00;17.90;99.90
44037;DHT22;62488;-37.670;-63.532;2023-01-28T09:50:35;17.90;99.90
44037;DHT22;62488;-37.670;-63.532;2023-01-28T09:53:11;17.90;99.90
44037;DHT22;62488;-37.670;-63.532;2023-01-28T09:55:55;18.00;99.90
44037;DHT22;62488;-37.670;-63.532;2023-01-28T09:58:22;18.00;99.90
44037;DHT22;62488;-37.670;-63.532;2023-01-28T10:03:37;18.10;99.90
44037;DHT22;62488;-37.670;-63.532;2023-01-28T10:06:24;18.30;99.90
44037;DHT22;62488;-37.670;-63.532;2023-01-28T10:17:26;18.90;99.90
44037;DHT22;62488;-37.670;-63.532;2023-01-28T10:20:42;19.00;99.90
44037;DHT22;62488;-37.670;-63.532;2023-01-28T10:25:29;19.10;99.90
44037;DHT22;62488;-37.670;-63.532;2023-01-28T10:27:57;19.10;99.90
44037;DHT22;62488;-37.670;-63.532;2023-01-28T10:30:31;19.20;99.90
44037;DHT22;62488;-37.670;-63.532;2023-01-28T10:33:23;19.40;99.90
44037;DHT22;62488;-37.670;-63.532;2023-01-28T10:35:55;19.40;99.90
44037;DHT22;62488;-37.670;-63.532;2023-01-28T10:38:25;19.40;99.90
44037;DHT22;62488;-37.670;-63.532;2023-01-28T10:40:53;19.50;99.90
44037;DHT22;62488;-37.670;-63.532;2023-01-28T10:43:28;19.60;99.90
44037;DHT22;62488;-37.670;-63.532;2023-01-28T10:46:08;19.70;99.90
44037;DHT22;62488;-37.670;-63.532;2023-01-28T10:49:26;19.90;99.90
44037;DHT22;62488;-37.670;-63.532;2023-01-28T10:51:36;20.20;99.90
44037;DHT22;62488;-37.670;-63.532;2023-01-28T10:54:26;20.40;99.90
44037;DHT22;62488;-37.670;-63.532;2023-01-28T10:57:07;20.50;99.90
44037;DHT22;62488;-37.670;-63.532;2023-01-28T10:59:36;20.70;99.90
44037;DHT22;62488;-37.670;-63.532;2023-01-28T11:05:21;21.10;99.90
44037;DHT22;62488;-37.670;-63.532;2023-01-28T11:08:05;21.40;99.90
44037;DHT22;62488;-37.670;-63.532;2023-01-28T11:10:38;21.50;99.90
44037;DHT22;62488;-37.670;-63.532;2023-01-28T11:13:28;21.70;99.90
44037;DHT22;62488;-37.670;-63.532;2023-01-28T11:18:34;22.20;99.90
44037;DHT22;62488;-37.670;-63.532;2023-01-28T11:21:13;22.20;99.90
44037;DHT22;62488;-37.670;-63.532;2023-01-28T11:26:26;22.50;99.90
44037;DHT22;62488;-37.670;-63.532;2023-01-28T11:28:55;22.40;99.90
44037;DHT22;62488;-37.670;-63.532;2023-01-28T11:31:23;22.70;99.90
44037;DHT22;62488;-37.670;-63.532;2023-01-28T11:33:51;22.90;99.90
44037;DHT22;62488;-37.670;-63.532;2023-01-28T11:36:23;23.10;99.90
44037;DHT22;62488;-37.670;-63.532;2023-01-28T11:38:55;23.40;99.90
44037;DHT22;62488;-37.670;-63.532;2023-01-28T11:41:37;23.70;99.90
44037;DHT22;62488;-37.670;-63.532;2023-01-28T11:47:22;23.70;99.90
44037;DHT22;62488;-37.670;-63.532;2023-01-28T11:50:29;23.60;99.90
44037;DHT22;62488;-37.670;-63.532;2023-01-28T12:13:45;25.40;99.90
44037;DHT22;62488;-37.670;-63.532;2023-01-28T12:24:26;26.00;99.90
44037;DHT22;62488;-37.670;-63.532;2023-01-28T12:27:00;26.00;99.90
44037;DHT22;62488;-37.670;-63.532;2023-01-28T12:30:14;25.90;99.90
44037;DHT22;62488;-37.670;-63.532;2023-01-28T12:35:23;26.40;99.90
44037;DHT22;62488;-37.670;-63.532;2023-01-28T12:48:53;27.40;99.90
44037;DHT22;62488;-37.670;-63.532;2023-01-28T12:51:29;27.70;99.80
44037;DHT22;62488;-37.670;-63.532;2023-01-28T12:54:15;27.90;99.80
44037;DHT22;62488;-37.670;-63.532;2023-01-28T12:56:48;27.90;97.90
44037;DHT22;62488;-37.670;-63.532;2023-01-28T12:59:48;28.10;98.20
44037;DHT22;62488;-37.670;-63.532;2023-01-28T13:02:20;28.50;97.20
44037;DHT22;62488;-37.670;-63.532;2023-01-28T13:13:12;29.30;93.90
44037;DHT22;62488;-37.670;-63.532;2023-01-28T13:15:43;29.20;93.40
44037;DHT22;62488;-37.670;-63.532;2023-01-28T13:18:30;29.50;92.80
44037;DHT22;62488;-37.670;-63.532;2023-01-28T13:21:03;30.10;92.20
44037;DHT22;62488;-37.670;-63.532;2023-01-28T13:23:38;30.10;90.60
44037;DHT22;62488;-37.670;-63.532;2023-01-28T13:28:51;30.60;88.20
44037;DHT22;62488;-37.670;-63.532;2023-01-28T13:31:21;30.60;87.50
44037;DHT22;62488;-37.670;-63.532;2023-01-28T13:36:25;31.00;83.90
44037;DHT22;62488;-37.670;-63.532;2023-01-28T13:41:52;31.00;81.00
44037;DHT22;62488;-37.670;-63.532;2023-01-28T13:44:29;31.10;81.10
44037;DHT22;62488;-37.670;-63.532;2023-01-28T13:50:11;31.40;77.90
44037;DHT22;62488;-37.670;-63.532;2023-01-28T13:53:21;31.80;76.10
44037;DHT22;62488;-37.670;-63.532;2023-01-28T13:55:49;32.00;75.40
44037;DHT22;62488;-37.670;-63.532;2023-01-28T14:03:34;31.80;68.40
44037;DHT22;62488;-37.670;-63.532;2023-01-28T14:14:40;32.80;65.30
44037;DHT22;62488;-37.670;-63.532;2023-01-28T14:19:57;32.80;61.40
44037;DHT22;62488;-37.670;-63.532;2023-01-28T14:22:25;32.60;61.00
44037;DHT22;62488;-37.670;-63.532;2023-01-28T14:24:52;32.80;57.90
44037;DHT22;62488;-37.670;-63.532;2023-01-28T14:27:26;32.90;58.40
44037;DHT22;62488;-37.670;-63.532;2023-01-28T14:32:51;34.30;55.20
44037;DHT22;62488;-37.670;-63.532;2023-01-28T14:37:51;34.00;57.60
44037;DHT22;62488;-37.670;-63.532;2023-01-28T14:40:18;34.50;57.20
44037;DHT22;62488;-37.670;-63.532;2023-01-28T14:42:49;34.50;56.00
44037;DHT22;62488;-37.670;-63.532;2023-01-28T14:45:33;33.90;55.30
44037;DHT22;62488;-37.670;-63.532;2023-01-28T14:48:28;34.40;54.40
44037;DHT22;62488;-37.670;-63.532;2023-01-28T14:54:41;34.60;55.30
44037;DHT22;62488;-37.670;-63.532;2023-01-28T14:57:27;34.70;54.70
44037;DHT22;62488;-37.670;-63.532;2023-01-28T14:59:58;35.10;55.40
44037;DHT22;62488;-37.670;-63.532;2023-01-28T15:02:28;34.80;56.00
44037;DHT22;62488;-37.670;-63.532;2023-01-28T15:05:07;34.30;55.70
44037;DHT22;62488;-37.670;-63.532;2023-01-28T15:07:34;34.50;55.20
44037;DHT22;62488;-37.670;-63.532;2023-01-28T15:10:10;35.40;52.20
44037;DHT22;62488;-37.670;-63.532;2023-01-28T15:12:43;35.50;51.30
44037;DHT22;62488;-37.670;-63.532;2023-01-28T15:15:28;35.80;49.00
44037;DHT22;62488;-37.670;-63.532;2023-01-28T15:18:16;35.50;48.60
44037;DHT22;62488;-37.670;-63.532;2023-01-28T15:20:46;35.80;49.00
44037;DHT22;62488;-37.670;-63.532;2023-01-28T15:23:16;35.60;47.50
44037;DHT22;62488;-37.670;-63.532;2023-01-28T15:25:43;35.70;49.60
44037;DHT22;62488;-37.670;-63.532;2023-01-28T15:28:24;36.00;46.10
44037;DHT22;62488;-37.670;-63.532;2023-01-28T15:30:52;35.80;46.00
44037;DHT22;62488;-37.670;-63.532;2023-01-28T15:33:21;35.60;47.90
44037;DHT22;62488;-37.670;-63.532;2023-01-28T15:35:51;35.60;48.40
44037;DHT22;62488;-37.670;-63.532;2023-01-28T15:38:19;35.60;46.70
44037;DHT22;62488;-37.670;-63.532;2023-01-28T15:41:02;35.80;46.60
44037;DHT22;62488;-37.670;-63.532;2023-01-28T15:43:36;36.50;46.20
44037;DHT22;62488;-37.670;-63.532;2023-01-28T15:46:10;36.80;42.70
44037;DHT22;62488;-37.670;-63.532;2023-01-28T15:48:41;37.10;41.00
44037;DHT22;62488;-37.670;-63.532;2023-01-28T15:51:24;37.30;38.20
44037;DHT22;62488;-37.670;-63.532;2023-01-28T15:54:00;37.40;35.20
44037;DHT22;62488;-37.670;-63.532;2023-01-28T15:56:29;37.40;35.60
44037;DHT22;62488;-37.670;-63.532;2023-01-28T15:59:28;37.50;35.20
44037;DHT22;62488;-37.670;-63.532;2023-01-28T16:02:20;37.00;32.80
44037;DHT22;62488;-37.670;-63.532;2023-01-28T16:05:03;36.10;33.70
44037;DHT22;62488;-37.670;-63.532;2023-01-28T16:07:32;37.00;35.30
44037;DHT22;62488;-37.670;-63.532;2023-01-28T16:10:03;37.10;37.30
44037;DHT22;62488;-37.670;-63.532;2023-01-28T16:12:29;37.00;37.60
44037;DHT22;62488;-37.670;-63.532;2023-01-28T16:15:01;37.10;37.10
44037;DHT22;62488;-37.670;-63.532;2023-01-28T16:17:41;37.20;37.30
44037;DHT22;62488;-37.670;-63.532;2023-01-28T16:20:29;37.50;37.40
44037;DHT22;62488;-37.670;-63.532;2023-01-28T16:23:01;37.60;37.40
44037;DHT22;62488;-37.670;-63.532;2023-01-28T16:25:35;37.60;39.00
44037;DHT22;62488;-37.670;-63.532;2023-01-28T16:28:04;37.60;38.40
44037;DHT22;62488;-37.670;-63.532;2023-01-28T16:30:37;38.00;39.30
44037;DHT22;62488;-37.670;-63.532;2023-01-28T16:33:04;38.20;38.60
44037;DHT22;62488;-37.670;-63.532;2023-01-28T16:35:31;38.10;38.10
44037;DHT22;62488;-37.670;-63.532;2023-01-28T16:37:58;38.20;37.10
44037;DHT22;62488;-37.670;-63.532;2023-01-28T16:40:26;38.00;38.30
44037;DHT22;62488;-37.670;-63.532;2023-01-28T16:42:54;37.70;37.20
44037;DHT22;62488;-37.670;-63.532;2023-01-28T16:45:23;37.40;36.20
44037;DHT22;62488;-37.670;-63.532;2023-01-28T16:47:51;36.60;37.60
44037;DHT22;62488;-37.670;-63.532;2023-01-28T16:50:19;36.30;38.60
44037;DHT22;62488;-37.670;-63.532;2023-01-28T16:52:49;36.90;38.70
44037;DHT22;62488;-37.670;-63.532;2023-01-28T16:55:20;37.40;38.80
44037;DHT22;62488;-37.670;-63.532;2023-01-28T16:57:49;37.60;36.40
44037;DHT22;62488;-37.670;-63.532;2023-01-28T17:00:25;38.00;37.50
44037;DHT22;62488;-37.670;-63.532;2023-01-28T17:02:53;38.00;37.00
44037;DHT22;62488;-37.670;-63.532;2023-01-28T17:05:21;37.30;36.30
44037;DHT22;62488;-37.670;-63.532;2023-01-28T17:07:49;36.40;36.00
44037;DHT22;62488;-37.670;-63.532;2023-01-28T17:10:17;36.20;37.80
44037;DHT22;62488;-37.670;-63.532;2023-01-28T17:12:47;35.80;37.20
44037;DHT22;62488;-37.670;-63.532;2023-01-28T17:15:15;36.10;37.20
44037;DHT22;62488;-37.670;-63.532;2023-01-28T17:17:45;36.50;38.20
44037;DHT22;62488;-37.670;-63.532;2023-01-28T17:20:12;37.10;37.40
44037;DHT22;62488;-37.670;-63.532;2023-01-28T17:22:39;37.20;38.60
44037;DHT22;62488;-37.670;-63.532;2023-01-28T17:25:07;37.60;37.90
44037;DHT22;62488;-37.670;-63.532;2023-01-28T17:27:34;37.70;37.20
44037;DHT22;62488;-37.670;-63.532;2023-01-28T17:30:01;37.70;37.70
44037;DHT22;62488;-37.670;-63.532;2023-01-28T17:32:29;37.70;37.30
44037;DHT22;62488;-37.670;-63.532;2023-01-28T17:34:56;37.60;36.90
44037;DHT22;62488;-37.670;-63.532;2023-01-28T17:37:23;38.00;37.00
44037;DHT22;62488;-37.670;-63.532;2023-01-28T17:39:50;37.90;37.30